sensor_id;sensor_type;location;lat;lon;timestamp;P1;durP1;ratioP1;P2;durP2;ratioP2
68872;SDS011;55907;50.806;12.882;2023-03-03T00:01:07;43.5;;;24.8;;
68872;SDS011;55907;50.806;12.882;2023-03-03T00:04:09;45.2;;;25.0;;
68872;SDS011;55907;50.806;12.882;2023-03-03T00:07:11;44.4;;;24.4;;
68872;SDS011;55907;50.806;12.882;2023-03-03T00:10:12;53.7;;;29.5;;
68872;SDS011;55907;50.806;12.882;2023-03-03T00:13:15;48.0;;;25.6;;
68872;SDS011;55907;50.806;12.882;2023-03-03T00:16:17;41.9;;;23.8;;
68872;SDS011;55907;50.806;12.882;2023-03-03T00:19:18;44.9;;;23.5;;
68872;SDS011;55907;50.806;12.882;2023-03-03T00:22:22;71.7;;;26.7;;
68872;SDS011;55907;50.806;12.882;2023-03-03T00:25:24;64.7;;;28.3;;
68872;SDS011;55907;50.806;12.882;2023-03-03T00:28:23;55.0;;;27.0;;
68872;SDS011;55907;50.806;12.882;2023-03-03T00:31:25;49.4;;;25.3;;
68872;SDS011;55907;50.806;12.882;2023-03-03T00:34:26;47.1;;;23.7;;
68872;SDS011;55907;50.806;12.882;2023-03-03T00:37:28;50.4;;;25.5;;
68872;SDS011;55907;50.806;12.882;2023-03-03T00:40:31;53.6;;;25.2;;
68872;SDS011;55907;50.806;12.882;2023-03-03T00:43:33;54.2;;;26.5;;
68872;SDS011;55907;50.806;12.882;2023-03-03T00:46:32;49.0;;;25.7;;
68872;SDS011;55907;50.806;12.882;2023-03-03T00:49:33;71.9;;;26.7;;
68872;SDS011;55907;50.806;12.882;2023-03-03T00:52:36;51.2;;;24.6;;
68872;SDS011;55907;50.806;12.882;2023-03-03T00:55:36;52.2;;;23.9;;
68872;SDS011;55907;50.806;12.882;2023-03-03T00:58:38;53.7;;;25.4;;
68872;SDS011;55907;50.806;12.882;2023-03-03T01:01:40;53.5;;;24.7;;
68872;SDS011;55907;50.806;12.882;2023-03-03T01:04:42;52.6;;;23.7;;
68872;SDS011;55907;50.806;12.882;2023-03-03T01:07:43;93.5;;;27.1;;
68872;SDS011;55907;50.806;12.882;2023-03-03T01:10:45;61.7;;;25.2;;
68872;SDS011;55907;50.806;12.882;2023-03-03T01:13:46;92.8;;;25.3;;
68872;SDS011;55907;50.806;12.882;2023-03-03T01:16:48;63.3;;;25.4;;
68872;SDS011;55907;50.806;12.882;2023-03-03T01:19:49;44.8;;;24.6;;
68872;SDS011;55907;50.806;12.882;2023-03-03T01:22:51;89.8;;;27.3;;
68872;SDS011;55907;50.806;12.882;2023-03-03T01:25:53;95.4;;;26.6;;
68872;SDS011;55907;50.806;12.882;2023-03-03T01:28:54;189.8;;;30.3;;
68872;SDS011;55907;50.806;12.882;2023-03-03T01:31:56;104.8;;;28.0;;
68872;SDS011;55907;50.806;12.882;2023-03-03T01:34:57;71.8;;;26.1;;
68872;SDS011;55907;50.806;12.882;2023-03-03T01:37:59;159.5;;;30.6;;
68872;SDS011;55907;50.806;12.882;2023-03-03T01:41:01;344.6;;;36.0;;
68872;SDS011;55907;50.806;12.882;2023-03-03T01:44:02;161.4;;;29.7;;
68872;SDS011;55907;50.806;12.882;2023-03-03T01:47:04;89.9;;;28.3;;
68872;SDS011;55907;50.806;12.882;2023-03-03T01:50:08;79.0;;;25.5;;
68872;SDS011;55907;50.806;12.882;2023-03-03T01:53:10;75.6;;;24.4;;
68872;SDS011;55907;50.806;12.882;2023-03-03T01:56:09;111.7;;;25.7;;
68872;SDS011;55907;50.806;12.882;2023-03-03T01:59:11;95.5;;;23.5;;
68872;SDS011;55907;50.806;12.882;2023-03-03T02:02:12;112.8;;;24.6;;
68872;SDS011;55907;50.806;12.882;2023-03-03T02:05:14;134.3;;;26.6;;
68872;SDS011;55907;50.806;12.882;2023-03-03T02:08:15;156.2;;;28.6;;
68872;SDS011;55907;50.806;12.882;2023-03-03T02:11:17;168.0;;;28.9;;
68872;SDS011;55907;50.806;12.882;2023-03-03T02:14:18;118.2;;;27.9;;
68872;SDS011;55907;50.806;12.882;2023-03-03T02:17:20;224.0;;;29.1;;
68872;SDS011;55907;50.806;12.882;2023-03-03T02:20:27;183.9;;;30.2;;
68872;SDS011;55907;50.806;12.882;2023-03-03T02:23:25;116.1;;;26.3;;
68872;SDS011;55907;50.806;12.882;2023-03-03T02:26:25;75.5;;;21.7;;
68872;SDS011;55907;50.806;12.882;2023-03-03T02:29:26;70.5;;;21.9;;
68872;SDS011;55907;50.806;12.882;2023-03-03T02:32:28;64.1;;;21.6;;
68872;SDS011;55907;50.806;12.882;2023-03-03T02:35:31;78.7;;;20.9;;
68872;SDS011;55907;50.806;12.882;2023-03-03T02:38:33;46.9;;;21.0;;
68872;SDS011;55907;50.806;12.882;2023-03-03T02:41:34;46.4;;;21.4;;
68872;SDS011;55907;50.806;12.882;2023-03-03T02:44:34;51.1;;;21.0;;
68872;SDS011;55907;50.806;12.882;2023-03-03T02:47:36;49.7;;;21.8;;
68872;SDS011;55907;50.806;12.882;2023-03-03T02:50:38;52.4;;;20.8;;
68872;SDS011;55907;50.806;12.882;2023-03-03T02:53:39;111.0;;;25.3;;
68872;SDS011;55907;50.806;12.882;2023-03-03T02:56:41;70.4;;;23.7;;
68872;SDS011;55907;50.806;12.882;2023-03-03T02:59:42;43.2;;;20.6;;
68872;SDS011;55907;50.806;12.882;2023-03-03T03:02:44;68.8;;;22.7;;
68872;SDS011;55907;50.806;12.882;2023-03-03T03:05:46;85.4;;;24.9;;
68872;SDS011;55907;50.806;12.882;2023-03-03T03:08:47;60.7;;;22.5;;
68872;SDS011;55907;50.806;12.882;2023-03-03T03:11:49;50.9;;;21.9;;
68872;SDS011;55907;50.806;12.882;2023-03-03T03:14:51;61.2;;;21.9;;
68872;SDS011;55907;50.806;12.882;2023-03-03T03:17:52;36.9;;;19.7;;
68872;SDS011;55907;50.806;12.882;2023-03-03T03:20:54;78.2;;;22.3;;
68872;SDS011;55907;50.806;12.882;2023-03-03T03:23:56;70.0;;;20.1;;
68872;SDS011;55907;50.806;12.882;2023-03-03T03:26:57;41.7;;;19.8;;
68872;SDS011;55907;50.806;12.882;2023-03-03T03:29:59;39.1;;;19.7;;
68872;SDS011;55907;50.806;12.882;2023-03-03T03:33:00;73.0;;;23.0;;
68872;SDS011;55907;50.806;12.882;2023-03-03T03:36:02;57.3;;;21.3;;
68872;SDS011;55907;50.806;12.882;2023-03-03T03:39:04;58.6;;;21.3;;
68872;SDS011;55907;50.806;12.882;2023-03-03T03:42:05;44.1;;;20.5;;
68872;SDS011;55907;50.806;12.882;2023-03-03T03:45:07;44.7;;;21.2;;
68872;SDS011;55907;50.806;12.882;2023-03-03T03:48:09;43.0;;;22.0;;
68872;SDS011;55907;50.806;12.882;2023-03-03T03:51:10;40.3;;;20.6;;
68872;SDS011;55907;50.806;12.882;2023-03-03T03:54:12;53.4;;;18.7;;
68872;SDS011;55907;50.806;12.882;2023-03-03T03:57:14;42.1;;;21.0;;
68872;SDS011;55907;50.806;12.882;2023-03-03T04:00:15;37.7;;;20.0;;
68872;SDS011;55907;50.806;12.882;2023-03-03T04:03:17;40.0;;;20.6;;
68872;SDS011;55907;50.806;12.882;2023-03-03T04:06:18;38.6;;;20.7;;
68872;SDS011;55907;50.806;12.882;2023-03-03T04:09:20;38.0;;;19.5;;
68872;SDS011;55907;50.806;12.882;2023-03-03T04:12:22;35.7;;;18.7;;
68872;SDS011;55907;50.806;12.882;2023-03-03T04:15:23;37.8;;;18.5;;
68872;SDS011;55907;50.806;12.882;2023-03-03T04:17:49;unavailable;;;unavailable;;
68872;SDS011;55907;50.806;12.882;2023-03-03T04:17:56;37.8;;;18.5;;
68872;SDS011;55907;50.806;12.882;2023-03-03T04:18:25;33.0;;;18.3;;
68872;SDS011;55907;50.806;12.882;2023-03-03T04:20:10;unavailable;;;unavailable;;
68872;SDS011;55907;50.806;12.882;2023-03-03T04:20:14;33.0;;;18.3;;
68872;SDS011;55907;50.806;12.882;2023-03-03T04:21:27;37.7;;;18.2;;
68872;SDS011;55907;50.806;12.882;2023-03-03T04:22:43;unavailable;;;unavailable;;
68872;SDS011;55907;50.806;12.882;2023-03-03T04:22:46;37.7;;;18.2;;
68872;SDS011;55907;50.806;12.882;2023-03-03T04:23:42;unavailable;;;unavailable;;
68872;SDS011;55907;50.806;12.882;2023-03-03T04:23:45;37.7;;;18.2;;
68872;SDS011;55907;50.806;12.882;2023-03-03T04:24:28;34.3;;;17.6;;
68872;SDS011;55907;50.806;12.882;2023-03-03T04:27:30;32.3;;;18.1;;
68872;SDS011;55907;50.806;12.882;2023-03-03T04:27:33;unavailable;;;unavailable;;
68872;SDS011;55907;50.806;12.882;2023-03-03T04:27:38;32.3;;;18.1;;
68872;SDS011;55907;50.806;12.882;2023-03-03T04:29:03;unavailable;;;unavailable;;
68872;SDS011;55907;50.806;12.882;2023-03-03T04:29:14;32.3;;;18.1;;
68872;SDS011;55907;50.806;12.882;2023-03-03T04:30:31;31.8;;;18.6;;
68872;SDS011;55907;50.806;12.882;2023-03-03T04:33:33;35.0;;;20.6;;
68872;SDS011;55907;50.806;12.882;2023-03-03T04:36:35;42.6;;;20.3;;
68872;SDS011;55907;50.806;12.882;2023-03-03T04:39:36;33.8;;;19.2;;
68872;SDS011;55907;50.806;12.882;2023-03-03T04:42:38;36.9;;;20.3;;
68872;SDS011;55907;50.806;12.882;2023-03-03T04:45:40;37.6;;;19.4;;
68872;SDS011;55907;50.806;12.882;2023-03-03T04:48:41;34.6;;;19.0;;
68872;SDS011;55907;50.806;12.882;2023-03-03T04:51:43;36.3;;;18.7;;
68872;SDS011;55907;50.806;12.882;2023-03-03T04:54:44;36.2;;;19.2;;
68872;SDS011;55907;50.806;12.882;2023-03-03T04:57:46;34.2;;;18.6;;
68872;SDS011;55907;50.806;12.882;2023-03-03T05:00:52;45.1;;;20.6;;
68872;SDS011;55907;50.806;12.882;2023-03-03T05:03:49;54.9;;;20.3;;
68872;SDS011;55907;50.806;12.882;2023-03-03T05:06:51;91.4;;;22.8;;
68872;SDS011;55907;50.806;12.882;2023-03-03T05:09:52;55.8;;;21.4;;
68872;SDS011;55907;50.806;12.882;2023-03-03T05:12:54;99.9;;;23.7;;
68872;SDS011;55907;50.806;12.882;2023-03-03T05:15:56;47.5;;;19.6;;
68872;SDS011;55907;50.806;12.882;2023-03-03T05:18:57;41.1;;;18.5;;
68872;SDS011;55907;50.806;12.882;2023-03-03T05:21:59;49.7;;;21.2;;
68872;SDS011;55907;50.806;12.882;2023-03-03T05:25:01;53.9;;;20.3;;
68872;SDS011;55907;50.806;12.882;2023-03-03T05:28:02;82.9;;;22.0;;
68872;SDS011;55907;50.806;12.882;2023-03-03T05:31:04;62.6;;;21.7;;
68872;SDS011;55907;50.806;12.882;2023-03-03T05:34:06;57.7;;;21.6;;
68872;SDS011;55907;50.806;12.882;2023-03-03T05:37:07;60.0;;;20.7;;
68872;SDS011;55907;50.806;12.882;2023-03-03T05:40:09;107.9;;;22.8;;
68872;SDS011;55907;50.806;12.882;2023-03-03T05:43:10;84.5;;;21.9;;
68872;SDS011;55907;50.806;12.882;2023-03-03T05:46:12;50.4;;;20.4;;
68872;SDS011;55907;50.806;12.882;2023-03-03T05:49:14;64.7;;;19.8;;
68872;SDS011;55907;50.806;12.882;2023-03-03T05:52:15;113.9;;;25.1;;
68872;SDS011;55907;50.806;12.882;2023-03-03T05:55:17;58.0;;;22.3;;
68872;SDS011;55907;50.806;12.882;2023-03-03T05:58:19;42.6;;;19.9;;
68872;SDS011;55907;50.806;12.882;2023-03-03T06:01:20;73.4;;;20.8;;
68872;SDS011;55907;50.806;12.882;2023-03-03T06:04:22;53.6;;;20.9;;
68872;SDS011;55907;50.806;12.882;2023-03-03T06:07:24;35.8;;;18.9;;
68872;SDS011;55907;50.806;12.882;2023-03-03T06:10:25;42.9;;;18.8;;
68872;SDS011;55907;50.806;12.882;2023-03-03T06:13:27;40.1;;;18.1;;
68872;SDS011;55907;50.806;12.882;2023-03-03T06:16:29;39.8;;;17.8;;
68872;SDS011;55907;50.806;12.882;2023-03-03T06:19:30;36.4;;;18.3;;
68872;SDS011;55907;50.806;12.882;2023-03-03T06:22:32;35.3;;;18.9;;
68872;SDS011;55907;50.806;12.882;2023-03-03T06:25:34;37.9;;;17.8;;
68872;SDS011;55907;50.806;12.882;2023-03-03T06:28:35;37.3;;;17.1;;
68872;SDS011;55907;50.806;12.882;2023-03-03T06:31:37;36.3;;;17.5;;
68872;SDS011;55907;50.806;12.882;2023-03-03T06:34:39;37.0;;;17.8;;
68872;SDS011;55907;50.806;12.882;2023-03-03T06:37:40;41.4;;;18.4;;
68872;SDS011;55907;50.806;12.882;2023-03-03T06:40:42;38.3;;;18.5;;
68872;SDS011;55907;50.806;12.882;2023-03-03T06:43:43;72.6;;;35.4;;
68872;SDS011;55907;50.806;12.882;2023-03-03T06:46:45;45.4;;;21.9;;
68872;SDS011;55907;50.806;12.882;2023-03-03T06:49:47;35.3;;;18.5;;
68872;SDS011;55907;50.806;12.882;2023-03-03T06:52:48;37.7;;;17.9;;
68872;SDS011;55907;50.806;12.882;2023-03-03T06:55:50;32.4;;;17.6;;
68872;SDS011;55907;50.806;12.882;2023-03-03T06:58:52;30.9;;;18.1;;
68872;SDS011;55907;50.806;12.882;2023-03-03T07:01:53;31.7;;;17.0;;
68872;SDS011;55907;50.806;12.882;2023-03-03T07:04:55;34.5;;;18.6;;
68872;SDS011;55907;50.806;12.882;2023-03-03T07:07:56;48.3;;;19.9;;
68872;SDS011;55907;50.806;12.882;2023-03-03T07:11:00;44.3;;;19.2;;
68872;SDS011;55907;50.806;12.882;2023-03-03T07:14:00;35.9;;;18.3;;
68872;SDS011;55907;50.806;12.882;2023-03-03T07:17:03;40.5;;;20.7;;
68872;SDS011;55907;50.806;12.882;2023-03-03T07:20:04;44.8;;;22.7;;
68872;SDS011;55907;50.806;12.882;2023-03-03T07:23:08;33.9;;;18.6;;
68872;SDS011;55907;50.806;12.882;2023-03-03T07:26:07;33.4;;;17.8;;
68872;SDS011;55907;50.806;12.882;2023-03-03T07:29:12;35.1;;;18.7;;
68872;SDS011;55907;50.806;12.882;2023-03-03T07:32:15;38.6;;;19.1;;
68872;SDS011;55907;50.806;12.882;2023-03-03T07:35:20;37.3;;;19.8;;
68872;SDS011;55907;50.806;12.882;2023-03-03T07:38:15;36.8;;;19.6;;
68872;SDS011;55907;50.806;12.882;2023-03-03T07:39:58;unavailable;;;unavailable;;
68872;SDS011;55907;50.806;12.882;2023-03-03T07:40:06;36.8;;;19.6;;
68872;SDS011;55907;50.806;12.882;2023-03-03T07:41:16;35.2;;;19.8;;
68872;SDS011;55907;50.806;12.882;2023-03-03T07:44:18;32.7;;;18.9;;
68872;SDS011;55907;50.806;12.882;2023-03-03T07:45:29;unavailable;;;unavailable;;
68872;SDS011;55907;50.806;12.882;2023-03-03T07:46:33;unavailable;;;unavailable;;
68872;SDS011;55907;50.806;12.882;2023-03-03T07:47:01;32.7;;;18.9;;
68872;SDS011;55907;50.806;12.882;2023-03-03T07:47:18;35.1;;;20.4;;
68872;SDS011;55907;50.806;12.882;2023-03-03T07:49:38;35.1;;;20.4;;
68872;SDS011;55907;50.806;12.882;2023-03-03T07:49:38;unavailable;;;unavailable;;
68872;SDS011;55907;50.806;12.882;2023-03-03T07:50:19;33.6;;;19.8;;
68872;SDS011;55907;50.806;12.882;2023-03-03T07:53:10;unavailable;;;unavailable;;
68872;SDS011;55907;50.806;12.882;2023-03-03T07:53:22;30.8;;;19.1;;
68872;SDS011;55907;50.806;12.882;2023-03-03T07:56:26;29.6;;;19.8;;
68872;SDS011;55907;50.806;12.882;2023-03-03T07:59:24;32.1;;;19.7;;
68872;SDS011;55907;50.806;12.882;2023-03-03T08:02:30;36.2;;;21.3;;
68872;SDS011;55907;50.806;12.882;2023-03-03T08:05:29;33.2;;;20.3;;
68872;SDS011;55907;50.806;12.882;2023-03-03T08:08:29;33.8;;;20.9;;
68872;SDS011;55907;50.806;12.882;2023-03-03T08:11:30;35.9;;;22.8;;
68872;SDS011;55907;50.806;12.882;2023-03-03T08:14:33;34.2;;;20.5;;
68872;SDS011;55907;50.806;12.882;2023-03-03T08:17:34;33.3;;;19.7;;
68872;SDS011;55907;50.806;12.882;2023-03-03T08:20:40;36.4;;;22.2;;
68872;SDS011;55907;50.806;12.882;2023-03-03T08:23:29;unavailable;;;unavailable;;
68872;SDS011;55907;50.806;12.882;2023-03-03T08:23:31;36.4;;;22.2;;
68872;SDS011;55907;50.806;12.882;2023-03-03T08:23:37;36.6;;;21.3;;
68872;SDS011;55907;50.806;12.882;2023-03-03T08:26:38;42.0;;;24.0;;
68872;SDS011;55907;50.806;12.882;2023-03-03T08:29:40;46.3;;;25.3;;
68872;SDS011;55907;50.806;12.882;2023-03-03T08:32:42;44.0;;;23.2;;
68872;SDS011;55907;50.806;12.882;2023-03-03T08:35:43;39.9;;;21.3;;
68872;SDS011;55907;50.806;12.882;2023-03-03T08:38:45;32.2;;;18.8;;
68872;SDS011;55907;50.806;12.882;2023-03-03T08:41:46;32.0;;;18.1;;
68872;SDS011;55907;50.806;12.882;2023-03-03T08:44:49;39.1;;;19.3;;
68872;SDS011;55907;50.806;12.882;2023-03-03T08:46:05;unavailable;;;unavailable;;
68872;SDS011;55907;50.806;12.882;2023-03-03T08:49:31;unavailable;;;unavailable;;
68872;SDS011;55907;50.806;12.882;2023-03-03T08:50:51;31.5;;;17.9;;
68872;SDS011;55907;50.806;12.882;2023-03-03T08:53:53;36.3;;;19.3;;
68872;SDS011;55907;50.806;12.882;2023-03-03T08:56:54;32.8;;;18.2;;
68872;SDS011;55907;50.806;12.882;2023-03-03T08:59:56;30.4;;;17.7;;
68872;SDS011;55907;50.806;12.882;2023-03-03T09:02:58;35.2;;;19.0;;
68872;SDS011;55907;50.806;12.882;2023-03-03T09:05:59;32.5;;;17.9;;
68872;SDS011;55907;50.806;12.882;2023-03-03T09:12:06;34.3;;;18.7;;
68872;SDS011;55907;50.806;12.882;2023-03-03T09:15:11;51.8;;;20.7;;
68872;SDS011;55907;50.806;12.882;2023-03-03T09:18:10;58.0;;;20.3;;
68872;SDS011;55907;50.806;12.882;2023-03-03T09:21:15;38.2;;;19.6;;
68872;SDS011;55907;50.806;12.882;2023-03-03T09:24:11;41.9;;;20.8;;
68872;SDS011;55907;50.806;12.882;2023-03-03T09:27:11;44.4;;;21.0;;
68872;SDS011;55907;50.806;12.882;2023-03-03T09:30:18;41.2;;;20.8;;
68872;SDS011;55907;50.806;12.882;2023-03-03T09:33:22;45.9;;;21.5;;
68872;SDS011;55907;50.806;12.882;2023-03-03T09:36:23;38.7;;;19.7;;
68872;SDS011;55907;50.806;12.882;2023-03-03T09:39:18;37.5;;;19.7;;
68872;SDS011;55907;50.806;12.882;2023-03-03T09:42:22;34.3;;;18.0;;
68872;SDS011;55907;50.806;12.882;2023-03-03T09:45:24;31.1;;;16.7;;
68872;SDS011;55907;50.806;12.882;2023-03-03T09:51:29;35.3;;;18.1;;
68872;SDS011;55907;50.806;12.882;2023-03-03T09:54:29;30.5;;;15.8;;
68872;SDS011;55907;50.806;12.882;2023-03-03T09:57:30;32.2;;;16.5;;
68872;SDS011;55907;50.806;12.882;2023-03-03T10:00:32;29.5;;;15.5;;
68872;SDS011;55907;50.806;12.882;2023-03-03T10:06:32;30.1;;;15.8;;
68872;SDS011;55907;50.806;12.882;2023-03-03T10:09:37;28.4;;;15.7;;
68872;SDS011;55907;50.806;12.882;2023-03-03T10:12:37;29.5;;;16.2;;
68872;SDS011;55907;50.806;12.882;2023-03-03T10:15:38;26.7;;;15.0;;
68872;SDS011;55907;50.806;12.882;2023-03-03T10:18:40;26.5;;;15.6;;
68872;SDS011;55907;50.806;12.882;2023-03-03T10:21:41;30.7;;;17.6;;
68872;SDS011;55907;50.806;12.882;2023-03-03T10:24:42;25.8;;;16.4;;
68872;SDS011;55907;50.806;12.882;2023-03-03T10:27:46;24.2;;;14.4;;
68872;SDS011;55907;50.806;12.882;2023-03-03T10:30:46;27.9;;;16.2;;
68872;SDS011;55907;50.806;12.882;2023-03-03T10:33:47;23.8;;;14.2;;
68872;SDS011;55907;50.806;12.882;2023-03-03T10:36:51;20.8;;;13.2;;
68872;SDS011;55907;50.806;12.882;2023-03-03T10:39:54;23.7;;;13.7;;
68872;SDS011;55907;50.806;12.882;2023-03-03T10:42:56;23.6;;;13.5;;
68872;SDS011;55907;50.806;12.882;2023-03-03T10:45:57;24.4;;;14.1;;
68872;SDS011;55907;50.806;12.882;2023-03-03T10:48:57;21.0;;;12.8;;
68872;SDS011;55907;50.806;12.882;2023-03-03T10:52:01;23.7;;;13.5;;
68872;SDS011;55907;50.806;12.882;2023-03-03T10:55:04;22.3;;;12.8;;
68872;SDS011;55907;50.806;12.882;2023-03-03T11:01:03;19.5;;;12.1;;
68872;SDS011;55907;50.806;12.882;2023-03-03T11:04:06;18.9;;;12.4;;
68872;SDS011;55907;50.806;12.882;2023-03-03T11:07:05;19.2;;;11.4;;
68872;SDS011;55907;50.806;12.882;2023-03-03T11:10:13;17.6;;;11.3;;
68872;SDS011;55907;50.806;12.882;2023-03-03T11:13:09;17.0;;;11.3;;
68872;SDS011;55907;50.806;12.882;2023-03-03T11:16:13;15.6;;;11.2;;
68872;SDS011;55907;50.806;12.882;2023-03-03T11:19:16;18.0;;;11.0;;
68872;SDS011;55907;50.806;12.882;2023-03-03T11:22:15;15.7;;;11.0;;
68872;SDS011;55907;50.806;12.882;2023-03-03T11:25:15;14.9;;;11.1;;
68872;SDS011;55907;50.806;12.882;2023-03-03T11:28:21;14.2;;;9.9;;
68872;SDS011;55907;50.806;12.882;2023-03-03T11:31:17;14.8;;;10.3;;
68872;SDS011;55907;50.806;12.882;2023-03-03T11:31:27;unavailable;;;unavailable;;
68872;SDS011;55907;50.806;12.882;2023-03-03T11:34:22;13.7;;;10.6;;
68872;SDS011;55907;50.806;12.882;2023-03-03T11:37:21;21.2;;;14.6;;
68872;SDS011;55907;50.806;12.882;2023-03-03T11:38:41;unavailable;;;unavailable;;
68872;SDS011;55907;50.806;12.882;2023-03-03T11:40:23;14.0;;;10.7;;
68872;SDS011;55907;50.806;12.882;2023-03-03T11:41:28;unavailable;;;unavailable;;
68872;SDS011;55907;50.806;12.882;2023-03-03T11:43:26;17.5;;;12.6;;
68872;SDS011;55907;50.806;12.882;2023-03-03T11:45:42;unavailable;;;unavailable;;
68872;SDS011;55907;50.806;12.882;2023-03-03T11:46:25;14.6;;;10.7;;
68872;SDS011;55907;50.806;12.882;2023-03-03T11:49:27;12.8;;;10.4;;
68872;SDS011;55907;50.806;12.882;2023-03-03T11:52:30;12.9;;;9.8;;
68872;SDS011;55907;50.806;12.882;2023-03-03T11:55:30;13.1;;;9.9;;
68872;SDS011;55907;50.806;12.882;2023-03-03T11:58:33;13.5;;;10.1;;
68872;SDS011;55907;50.806;12.882;2023-03-03T12:01:34;12.9;;;10.1;;
68872;SDS011;55907;50.806;12.882;2023-03-03T12:04:34;13.7;;;10.5;;
68872;SDS011;55907;50.806;12.882;2023-03-03T12:07:38;12.6;;;9.7;;
68872;SDS011;55907;50.806;12.882;2023-03-03T12:10:38;12.2;;;9.5;;
68872;SDS011;55907;50.806;12.882;2023-03-03T12:13:43;13.1;;;9.7;;
68872;SDS011;55907;50.806;12.882;2023-03-03T12:16:42;13.5;;;10.1;;
68872;SDS011;55907;50.806;12.882;2023-03-03T12:22:47;13.2;;;9.6;;
68872;SDS011;55907;50.806;12.882;2023-03-03T12:25:46;12.9;;;9.6;;
68872;SDS011;55907;50.806;12.882;2023-03-03T12:28:49;13.9;;;10.3;;
68872;SDS011;55907;50.806;12.882;2023-03-03T12:31:49;12.6;;;9.8;;
68872;SDS011;55907;50.806;12.882;2023-03-03T12:34:50;13.0;;;9.2;;
68872;SDS011;55907;50.806;12.882;2023-03-03T12:37:53;13.4;;;9.8;;
68872;SDS011;55907;50.806;12.882;2023-03-03T12:40:55;12.4;;;9.4;;
68872;SDS011;55907;50.806;12.882;2023-03-03T12:43:55;14.1;;;10.0;;
68872;SDS011;55907;50.806;12.882;2023-03-03T12:46:58;13.1;;;9.5;;
68872;SDS011;55907;50.806;12.882;2023-03-03T12:50:02;14.4;;;10.3;;
68872;SDS011;55907;50.806;12.882;2023-03-03T12:53:01;14.2;;;9.7;;
68872;SDS011;55907;50.806;12.882;2023-03-03T12:56:03;14.0;;;9.9;;
68872;SDS011;55907;50.806;12.882;2023-03-03T12:59:03;14.7;;;10.3;;
68872;SDS011;55907;50.806;12.882;2023-03-03T13:02:18;16.2;;;11.0;;
68872;SDS011;55907;50.806;12.882;2023-03-03T13:05:09;15.9;;;11.2;;
68872;SDS011;55907;50.806;12.882;2023-03-03T13:08:13;16.2;;;11.3;;
68872;SDS011;55907;50.806;12.882;2023-03-03T13:11:15;17.4;;;11.1;;
68872;SDS011;55907;50.806;12.882;2023-03-03T13:14:13;17.5;;;10.7;;
68872;SDS011;55907;50.806;12.882;2023-03-03T13:17:16;15.9;;;10.8;;
68872;SDS011;55907;50.806;12.882;2023-03-03T13:20:17;16.9;;;10.9;;
68872;SDS011;55907;50.806;12.882;2023-03-03T13:23:18;14.6;;;9.4;;
68872;SDS011;55907;50.806;12.882;2023-03-03T13:26:19;15.8;;;10.7;;
68872;SDS011;55907;50.806;12.882;2023-03-03T13:29:19;27.1;;;16.5;;
68872;SDS011;55907;50.806;12.882;2023-03-03T13:32:21;21.6;;;12.4;;
68872;SDS011;55907;50.806;12.882;2023-03-03T13:35:27;18.6;;;11.4;;
68872;SDS011;55907;50.806;12.882;2023-03-03T13:38:24;21.6;;;13.3;;
68872;SDS011;55907;50.806;12.882;2023-03-03T13:41:27;20.9;;;12.8;;
68872;SDS011;55907;50.806;12.882;2023-03-03T13:44:28;20.5;;;12.8;;
68872;SDS011;55907;50.806;12.882;2023-03-03T13:47:30;23.0;;;13.6;;
68872;SDS011;55907;50.806;12.882;2023-03-03T13:50:31;23.5;;;13.7;;
68872;SDS011;55907;50.806;12.882;2023-03-03T13:53:34;26.6;;;16.6;;
68872;SDS011;55907;50.806;12.882;2023-03-03T13:56:39;22.8;;;13.2;;
68872;SDS011;55907;50.806;12.882;2023-03-03T13:59:37;22.6;;;13.1;;
68872;SDS011;55907;50.806;12.882;2023-03-03T14:02:41;20.0;;;12.0;;
68872;SDS011;55907;50.806;12.882;2023-03-03T14:05:40;22.2;;;13.1;;
68872;SDS011;55907;50.806;12.882;2023-03-03T14:08:43;20.8;;;12.8;;
68872;SDS011;55907;50.806;12.882;2023-03-03T14:11:43;23.5;;;13.3;;
68872;SDS011;55907;50.806;12.882;2023-03-03T14:14:46;23.2;;;13.3;;
68872;SDS011;55907;50.806;12.882;2023-03-03T14:17:49;25.2;;;14.2;;
68872;SDS011;55907;50.806;12.882;2023-03-03T14:20:47;26.8;;;14.9;;
68872;SDS011;55907;50.806;12.882;2023-03-03T14:23:49;29.8;;;15.7;;
68872;SDS011;55907;50.806;12.882;2023-03-03T14:26:50;32.2;;;17.4;;
68872;SDS011;55907;50.806;12.882;2023-03-03T14:29:51;31.1;;;17.2;;
68872;SDS011;55907;50.806;12.882;2023-03-03T14:32:58;33.5;;;17.6;;
68872;SDS011;55907;50.806;12.882;2023-03-03T14:36:03;39.5;;;19.0;;
68872;SDS011;55907;50.806;12.882;2023-03-03T14:38:56;33.6;;;18.2;;
68872;SDS011;55907;50.806;12.882;2023-03-03T14:41:57;34.0;;;18.0;;
68872;SDS011;55907;50.806;12.882;2023-03-03T14:44:59;35.4;;;17.6;;
68872;SDS011;55907;50.806;12.882;2023-03-03T14:48:07;38.1;;;18.8;;
68872;SDS011;55907;50.806;12.882;2023-03-03T14:54:06;38.2;;;18.7;;
68872;SDS011;55907;50.806;12.882;2023-03-03T14:57:08;38.3;;;19.0;;
68872;SDS011;55907;50.806;12.882;2023-03-03T15:00:08;36.5;;;18.1;;
68872;SDS011;55907;50.806;12.882;2023-03-03T15:03:17;35.4;;;17.3;;
68872;SDS011;55907;50.806;12.882;2023-03-03T15:06:11;36.7;;;16.9;;
68872;SDS011;55907;50.806;12.882;2023-03-03T15:09:20;37.5;;;17.5;;
68872;SDS011;55907;50.806;12.882;2023-03-03T15:12:18;33.4;;;17.0;;
68872;SDS011;55907;50.806;12.882;2023-03-03T15:15:16;33.2;;;16.9;;
68872;SDS011;55907;50.806;12.882;2023-03-03T15:18:17;32.6;;;16.9;;
68872;SDS011;55907;50.806;12.882;2023-03-03T15:21:19;33.6;;;17.2;;
68872;SDS011;55907;50.806;12.882;2023-03-03T15:24:21;33.0;;;17.2;;
68872;SDS011;55907;50.806;12.882;2023-03-03T15:27:23;33.1;;;17.7;;
68872;SDS011;55907;50.806;12.882;2023-03-03T15:30:24;35.0;;;18.4;;
68872;SDS011;55907;50.806;12.882;2023-03-03T15:33:27;38.1;;;18.9;;
68872;SDS011;55907;50.806;12.882;2023-03-03T15:36:28;33.7;;;18.0;;
68872;SDS011;55907;50.806;12.882;2023-03-03T15:39:30;36.6;;;17.5;;
68872;SDS011;55907;50.806;12.882;2023-03-03T15:42:31;31.4;;;17.1;;
68872;SDS011;55907;50.806;12.882;2023-03-03T15:45:32;33.4;;;17.2;;
68872;SDS011;55907;50.806;12.882;2023-03-03T15:48:37;31.7;;;17.1;;
68872;SDS011;55907;50.806;12.882;2023-03-03T15:51:40;32.8;;;17.6;;
68872;SDS011;55907;50.806;12.882;2023-03-03T15:54:38;32.0;;;17.1;;
68872;SDS011;55907;50.806;12.882;2023-03-03T15:57:39;33.9;;;17.9;;
68872;SDS011;55907;50.806;12.882;2023-03-03T16:00:44;36.5;;;18.5;;
68872;SDS011;55907;50.806;12.882;2023-03-03T16:03:41;34.7;;;18.7;;
68872;SDS011;55907;50.806;12.882;2023-03-03T16:06:46;41.5;;;21.3;;
68872;SDS011;55907;50.806;12.882;2023-03-03T16:09:47;41.7;;;22.0;;
68872;SDS011;55907;50.806;12.882;2023-03-03T16:12:51;36.9;;;19.7;;
68872;SDS011;55907;50.806;12.882;2023-03-03T16:15:50;36.3;;;19.6;;
68872;SDS011;55907;50.806;12.882;2023-03-03T16:18:52;36.7;;;19.4;;
68872;SDS011;55907;50.806;12.882;2023-03-03T16:21:58;38.5;;;20.1;;
68872;SDS011;55907;50.806;12.882;2023-03-03T16:24:55;37.0;;;19.3;;
68872;SDS011;55907;50.806;12.882;2023-03-03T16:27:55;36.6;;;19.2;;
68872;SDS011;55907;50.806;12.882;2023-03-03T16:30:56;38.6;;;18.8;;
68872;SDS011;55907;50.806;12.882;2023-03-03T16:33:59;38.5;;;19.5;;
68872;SDS011;55907;50.806;12.882;2023-03-03T16:37:01;38.3;;;20.5;;
68872;SDS011;55907;50.806;12.882;2023-03-03T16:40:02;37.6;;;19.9;;
68872;SDS011;55907;50.806;12.882;2023-03-03T16:43:05;32.1;;;17.4;;